createdAt,value
2022-10-31T00:01:33.330Z,73.18
2022-10-31T00:04:05.858Z,73.31
2022-10-31T00:06:37.843Z,73.50
2022-10-31T00:09:11.558Z,73.29
2022-10-31T00:11:43.969Z,73.25
2022-10-31T00:14:15.996Z,73.46
2022-10-31T00:16:48.619Z,74.69
2022-10-31T00:19:21.060Z,75.11
2022-10-31T00:21:55.251Z,74.06
2022-10-31T00:24:27.328Z,73.98
2022-10-31T00:26:59.613Z,74.04
2022-10-31T00:29:31.656Z,74.15
2022-10-31T00:32:03.967Z,73.55
2022-10-31T00:34:36.252Z,73.78
2022-10-31T00:37:08.529Z,74.29
2022-10-31T00:39:41.272Z,74.89
2022-10-31T00:42:13.372Z,75.24
2022-10-31T00:44:47.801Z,75.37
2022-10-31T00:47:20.155Z,75.12
2022-10-31T00:49:53.005Z,74.81
2022-10-31T00:52:26.677Z,74.91
2022-10-31T00:54:58.753Z,74.47
2022-10-31T00:57:30.948Z,74.28
2022-10-31T01:00:02.957Z,74.28
2022-10-31T01:02:35.522Z,73.78
2022-10-31T01:05:08.679Z,73.56
2022-10-31T01:07:42.458Z,73.98
2022-10-31T01:10:15.242Z,73.88
2022-10-31T01:12:52.123Z,74.07
2022-10-31T01:15:25.451Z,73.86
2022-10-31T01:17:58.296Z,73.83
2022-10-31T01:20:30.967Z,73.68
2022-10-31T01:23:02.948Z,73.98
2022-10-31T01:25:34.954Z,73.89
2022-10-31T01:28:07.119Z,73.91
2022-10-31T01:30:39.413Z,73.86
2022-10-31T01:33:11.365Z,73.67
2022-10-31T01:35:43.414Z,73.20
2022-10-31T01:38:15.315Z,73.08
2022-10-31T01:40:47.349Z,73.20
2022-10-31T01:45:57.080Z,73.12
2022-10-31T01:48:32.361Z,73.16
2022-10-31T01:51:06.034Z,73.08
2022-10-31T01:53:39.107Z,73.10
2022-10-31T01:56:12.887Z,73.24
2022-10-31T01:58:47.185Z,73.74
2022-10-31T02:01:21.930Z,74.01
2022-10-31T02:03:57.192Z,74.22
2022-10-31T02:06:39.877Z,74.10
2022-10-31T02:09:12.880Z,74.00
2022-10-31T02:11:46.345Z,74.00
2022-10-31T02:14:18.666Z,73.84
2022-10-31T02:16:53.580Z,74.02
2022-10-31T02:19:28.280Z,73.95
2022-10-31T02:22:11.685Z,73.85
2022-10-31T02:24:59.416Z,73.64
2022-10-31T02:27:58.152Z,73.80
2022-10-31T02:30:38.116Z,73.63
2022-10-31T02:33:24.744Z,73.45
2022-10-31T02:36:06.749Z,73.05
2022-10-31T02:38:52.335Z,73.11
2022-10-31T02:41:42.919Z,73.10
2022-10-31T02:44:25.092Z,73.36
2022-10-31T02:47:01.974Z,73.44
2022-10-31T02:49:40.738Z,73.72
2022-10-31T02:52:23.910Z,73.97
2022-10-31T02:54:57.340Z,73.48
2022-10-31T02:57:34.388Z,73.39
2022-10-31T03:00:10.350Z,73.27
2022-10-31T03:03:06.532Z,73.17
2022-10-31T03:05:47.029Z,72.92
2022-10-31T03:08:25.624Z,72.80
2022-10-31T03:11:00.417Z,72.62
2022-10-31T03:13:38.288Z,72.16
2022-10-31T03:16:15.900Z,72.15
2022-10-31T03:18:56.050Z,72.17
2022-10-31T03:21:34.209Z,72.23
2022-10-31T03:24:10.974Z,72.27
2022-10-31T03:26:46.901Z,72.36
2022-10-31T03:29:23.683Z,72.62
2022-10-31T03:32:00.423Z,72.68
2022-10-31T03:34:34.067Z,72.94
2022-10-31T03:37:09.820Z,73.02
2022-10-31T03:39:45.394Z,73.11
2022-10-31T03:42:21.331Z,73.85
2022-10-31T03:44:59.898Z,73.64
2022-10-31T03:47:33.770Z,73.52
2022-10-31T03:50:08.415Z,73.38
2022-10-31T03:52:48.186Z,72.84
2022-10-31T03:55:27.811Z,73.16
2022-10-31T03:58:06.638Z,73.11
2022-10-31T04:00:44.553Z,73.15
2022-10-31T04:03:21.635Z,73.08
2022-10-31T04:05:57.189Z,72.73
2022-10-31T04:08:33.515Z,72.41
2022-10-31T04:11:08.874Z,72.07
2022-10-31T04:13:48.141Z,71.84
2022-10-31T04:16:21.318Z,71.56
2022-10-31T04:18:53.762Z,71.47
2022-10-31T04:21:30.843Z,71.09
2022-10-31T04:24:03.112Z,71.13
2022-10-31T04:26:35.939Z,71.32
2022-10-31T04:29:08.647Z,71.00
2022-10-31T04:31:40.681Z,70.92
2022-10-31T04:34:12.704Z,71.07
2022-10-31T04:36:45.522Z,71.32
2022-10-31T04:39:24.195Z,71.33
2022-10-31T04:42:21.372Z,71.30
2022-10-31T04:44:53.311Z,71.47
2022-10-31T04:47:25.362Z,71.62
2022-10-31T04:49:59.083Z,71.77
2022-10-31T04:52:31.939Z,71.90
2022-10-31T04:55:04.125Z,72.55
2022-10-31T04:57:55.093Z,72.92
2022-10-31T05:00:28.505Z,73.07
2022-10-31T05:03:02.305Z,73.53
2022-10-31T05:05:34.882Z,73.61
2022-10-31T05:08:09.177Z,73.47
2022-10-31T05:10:42.133Z,73.34
2022-10-31T05:13:15.786Z,73.40
2022-10-31T05:16:07.241Z,73.50
2022-10-31T05:18:58.452Z,73.31
2022-10-31T05:21:51.732Z,73.27
2022-10-31T05:24:29.148Z,73.36
2022-10-31T05:27:01.669Z,73.57
2022-10-31T05:29:34.469Z,73.70
2022-10-31T05:32:06.728Z,73.75
2022-10-31T05:35:01.601Z,74.01
2022-10-31T05:37:53.593Z,74.39
2022-10-31T05:40:27.698Z,74.66
2022-10-31T05:43:00.832Z,74.59
2022-10-31T05:45:33.270Z,75.17
2022-10-31T05:48:08.828Z,75.24
2022-10-31T05:50:59.614Z,75.46
2022-10-31T05:53:32.238Z,75.13
2022-10-31T05:56:04.342Z,74.91
2022-10-31T05:58:36.672Z,74.99
2022-10-31T06:01:11.544Z,75.05
2022-10-31T06:03:43.839Z,74.79
2022-10-31T06:06:15.980Z,74.67
2022-10-31T06:08:48.252Z,74.78
2022-10-31T06:11:24.670Z,74.83
2022-10-31T06:14:07.577Z,74.80
2022-10-31T06:16:57.931Z,74.91
2022-10-31T06:19:52.851Z,74.73
2022-10-31T06:22:26.870Z,74.74
2022-10-31T06:25:00.646Z,74.61
2022-10-31T06:27:39.933Z,74.53
2022-10-31T06:30:20.542Z,74.41
2022-10-31T06:32:54.034Z,74.51
2022-10-31T06:35:26.426Z,74.19
2022-10-31T06:37:59.220Z,74.48
2022-10-31T06:40:55.515Z,74.33
2022-10-31T06:43:34.446Z,74.40
2022-10-31T06:46:32.753Z,74.84
2022-10-31T06:49:27.706Z,74.71
2022-10-31T06:52:00.889Z,74.94
2022-10-31T06:54:33.259Z,75.32
2022-10-31T06:57:05.458Z,75.68
2022-10-31T06:59:37.714Z,75.37
2022-10-31T07:02:20.377Z,75.26
2022-10-31T07:04:53.998Z,75.57
2022-10-31T07:07:26.027Z,75.42
2022-10-31T07:09:58.305Z,75.71
2022-10-31T07:12:47.424Z,75.75
2022-10-31T07:15:19.740Z,76.16
2022-10-31T07:17:51.868Z,76.64
2022-10-31T07:20:23.939Z,77.28
2022-10-31T07:22:56.415Z,77.62
2022-10-31T07:25:29.459Z,78.17
2022-10-31T07:28:15.194Z,78.71
2022-10-31T07:30:54.961Z,78.95
2022-10-31T07:33:28.480Z,79.41
2022-10-31T07:36:19.097Z,79.88
2022-10-31T07:38:51.687Z,80.34
2022-10-31T07:41:24.537Z,80.46
2022-10-31T07:43:56.693Z,80.82
2022-10-31T07:46:47.274Z,80.77
2022-10-31T07:49:28.550Z,80.85
2022-10-31T07:52:19.553Z,81.07
2022-10-31T07:55:11.410Z,81.06
2022-10-31T07:57:44.075Z,81.47
2022-10-31T08:00:17.905Z,81.49
2022-10-31T08:02:49.950Z,81.92
2022-10-31T08:05:47.088Z,82.39
2022-10-31T08:08:40.060Z,82.43
2022-10-31T08:11:13.102Z,82.61
2022-10-31T08:13:45.450Z,83.06
2022-10-31T08:16:19.528Z,83.44
2022-10-31T08:19:02.156Z,83.79
2022-10-31T08:21:35.369Z,84.57
2022-10-31T08:24:08.374Z,84.57
2022-10-31T08:26:40.456Z,84.78
2022-10-31T08:29:15.539Z,85.20
2022-10-31T08:31:48.275Z,85.88
2022-10-31T08:34:39.172Z,86.53
2022-10-31T08:37:29.961Z,87.78
2022-10-31T08:40:02.279Z,88.42
2022-10-31T08:42:38.588Z,88.28
2022-10-31T08:45:12.772Z,87.96
2022-10-31T08:47:44.907Z,87.72
2022-10-31T08:50:18.787Z,87.56
2022-10-31T08:53:04.702Z,87.71
2022-10-31T08:55:39.844Z,88.88
2022-10-31T08:58:27.370Z,88.68
2022-10-31T09:01:04.189Z,89.38
2022-10-31T09:03:36.946Z,88.58
2022-10-31T09:06:10.208Z,89.38
2022-10-31T09:08:43.073Z,89.67
2022-10-31T09:11:15.169Z,90.79
2022-10-31T09:14:05.992Z,89.44
2022-10-31T09:16:56.563Z,88.58
2022-10-31T09:19:32.743Z,88.62
2022-10-31T09:22:04.839Z,87.67
2022-10-31T09:24:38.045Z,87.27
2022-10-31T09:27:10.382Z,87.81
2022-10-31T09:29:46.268Z,87.11
2022-10-31T09:32:18.628Z,87.81
2022-10-31T09:34:51.959Z,88.08
2022-10-31T09:37:25.268Z,87.44
2022-10-31T09:39:57.860Z,87.94
2022-10-31T09:42:54.025Z,88.03
2022-10-31T09:45:38.081Z,87.18
2022-10-31T09:48:29.849Z,86.12
2022-10-31T09:51:22.841Z,86.20
2022-10-31T09:54:13.091Z,86.26
2022-10-31T09:56:46.587Z,85.90
2022-10-31T09:59:26.486Z,86.38
2022-10-31T10:02:02.578Z,85.79
2022-10-31T10:04:40.459Z,84.85
2022-10-31T10:07:25.152Z,84.87
2022-10-31T10:10:20.350Z,85.19
2022-10-31T10:13:32.977Z,85.56
2022-10-31T10:16:24.943Z,85.97
2022-10-31T10:19:13.524Z,85.52
2022-10-31T10:21:52.940Z,84.74
2022-10-31T10:24:37.724Z,84.22
2022-10-31T10:27:23.429Z,84.38
2022-10-31T10:30:03.594Z,84.59
2022-10-31T10:32:43.898Z,84.03
2022-10-31T10:35:24.449Z,83.38
2022-10-31T10:38:04.052Z,83.20
2022-10-31T10:40:36.729Z,82.83
2022-10-31T10:43:21.423Z,82.63
2022-10-31T10:46:27.306Z,83.92
2022-10-31T10:49:02.720Z,83.04
2022-10-31T10:52:13.188Z,82.12
2022-10-31T10:54:44.838Z,82.42
2022-10-31T10:57:30.988Z,82.40
2022-10-31T11:00:05.896Z,82.58
2022-10-31T11:02:36.327Z,81.55
2022-10-31T11:05:21.654Z,80.68
2022-10-31T11:08:13.071Z,80.81
2022-10-31T11:11:05.992Z,80.45
2022-10-31T11:13:42.919Z,80.25
2022-10-31T11:16:17.250Z,80.46
2022-10-31T11:18:50.237Z,80.03
2022-10-31T11:25:32.977Z,79.80
2022-10-31T11:28:07.820Z,79.66
2022-10-31T11:30:47.658Z,79.33
2022-10-31T11:33:26.051Z,78.82
2022-10-31T11:35:59.530Z,78.58
2022-10-31T11:38:36.607Z,78.37
2022-10-31T11:41:15.508Z,78.65
2022-10-31T11:43:54.242Z,78.00
2022-10-31T11:46:32.775Z,77.62
2022-10-31T11:49:06.656Z,77.38
2022-10-31T11:51:39.412Z,78.08
2022-10-31T11:54:27.914Z,77.08
2022-10-31T11:57:00.081Z,77.18
2022-10-31T11:59:33.735Z,77.16
2022-10-31T12:02:20.984Z,76.67
2022-10-31T12:05:00.371Z,77.33
2022-10-31T12:07:32.852Z,77.41
2022-10-31T12:10:12.007Z,77.37
2022-10-31T12:13:02.947Z,77.77
2022-10-31T12:15:37.662Z,77.35
2022-10-31T12:18:38.482Z,78.68
2022-10-31T12:21:25.915Z,79.03
2022-10-31T12:24:16.019Z,79.38
2022-10-31T12:27:01.690Z,79.28
2022-10-31T12:29:51.769Z,79.32
2022-10-31T12:32:36.436Z,78.52
2022-10-31T12:35:26.002Z,79.17
2022-10-31T12:38:41.274Z,78.97
2022-10-31T12:41:27.215Z,79.27
2022-10-31T12:44:07.770Z,79.57
2022-10-31T12:46:58.108Z,79.35
2022-10-31T12:49:45.010Z,79.70
2022-10-31T12:52:39.845Z,79.57
2022-10-31T12:55:28.302Z,79.62
2022-10-31T12:58:06.470Z,78.96
2022-10-31T13:00:42.870Z,78.72
2022-10-31T13:03:25.303Z,78.47
2022-10-31T13:06:00.310Z,78.87
2022-10-31T13:08:36.618Z,79.20
2022-10-31T13:11:12.933Z,78.58
2022-10-31T13:13:49.393Z,78.76
2022-10-31T13:16:25.852Z,79.20
2022-10-31T13:19:01.450Z,79.10
2022-10-31T13:21:38.500Z,79.57
2022-10-31T13:24:16.092Z,79.46
2022-10-31T13:26:52.277Z,79.58
2022-10-31T13:29:32.742Z,80.23
2022-10-31T13:32:08.592Z,79.95
2022-10-31T13:34:42.587Z,80.61
2022-10-31T13:37:23.526Z,80.55
2022-10-31T13:40:12.779Z,80.38
2022-10-31T13:42:56.289Z,79.60
2022-10-31T13:45:29.504Z,79.66
2022-10-31T13:48:19.684Z,79.65
2022-10-31T13:51:03.129Z,79.62
2022-10-31T13:53:47.611Z,79.24
2022-10-31T13:56:23.384Z,79.43
2022-10-31T13:59:21.535Z,79.23
2022-10-31T14:01:57.653Z,78.78
2022-10-31T14:04:35.412Z,78.93
2022-10-31T14:07:12.527Z,78.58
2022-10-31T14:09:57.557Z,79.75
2022-10-31T14:12:35.976Z,79.64
2022-10-31T14:15:18.401Z,78.97
2022-10-31T14:17:53.884Z,78.68
2022-10-31T14:20:41.973Z,78.53
2022-10-31T14:23:43.688Z,78.72
2022-10-31T14:26:37.899Z,78.20
2022-10-31T14:29:28.411Z,78.18
2022-10-31T14:32:19.333Z,78.64
2022-10-31T14:34:57.894Z,78.73
2022-10-31T14:38:02.461Z,79.27
2022-10-31T14:40:45.443Z,80.13
2022-10-31T14:43:43.903Z,80.85
2022-10-31T14:46:27.406Z,82.02
2022-10-31T14:49:20.286Z,82.18
2022-10-31T14:51:54.155Z,82.29
2022-10-31T14:54:30.989Z,83.25
2022-10-31T14:57:09.627Z,83.28
2022-10-31T14:59:50.032Z,83.26
2022-10-31T15:02:26.767Z,83.40
2022-10-31T15:05:03.279Z,83.70
2022-10-31T15:07:37.604Z,83.88
2022-10-31T15:10:24.437Z,83.75
2022-10-31T15:12:56.833Z,83.86
2022-10-31T15:15:29.654Z,83.97
2022-10-31T15:18:03.418Z,84.08
2022-10-31T15:20:44.715Z,83.65
2022-10-31T15:23:25.527Z,84.12
2022-10-31T15:26:05.035Z,84.10
2022-10-31T15:28:37.189Z,84.14
2022-10-31T15:31:17.982Z,84.04
2022-10-31T15:33:51.942Z,83.72
2022-10-31T15:36:29.070Z,83.68
2022-10-31T15:39:02.748Z,83.35
2022-10-31T15:41:38.712Z,82.97
2022-10-31T15:44:21.664Z,82.57
2022-10-31T15:46:59.813Z,83.27
2022-10-31T15:49:38.896Z,83.02
2022-10-31T15:52:15.661Z,82.99
2022-10-31T15:54:53.704Z,82.65
2022-10-31T15:57:27.745Z,82.55
2022-10-31T16:00:00.593Z,83.03
2022-10-31T16:02:33.377Z,83.23
2022-10-31T16:05:18.304Z,83.10
2022-10-31T16:07:53.975Z,83.13
2022-10-31T16:10:29.097Z,82.85
2022-10-31T16:13:04.596Z,82.06
2022-10-31T16:15:37.853Z,81.85
2022-10-31T16:18:15.978Z,81.49
2022-10-31T16:20:56.329Z,81.40
2022-10-31T16:23:30.380Z,81.24
2022-10-31T16:26:07.732Z,81.98
2022-10-31T16:28:40.898Z,82.27
2022-10-31T16:31:19.958Z,82.79
2022-10-31T16:34:03.187Z,83.37
2022-10-31T16:36:39.693Z,83.70
2022-10-31T16:39:12.005Z,83.13
2022-10-31T16:41:46.949Z,82.30
2022-10-31T16:44:27.757Z,82.85
2022-10-31T16:47:15.426Z,82.16
2022-10-31T16:49:51.260Z,81.81
2022-10-31T16:52:22.001Z,82.53
2022-10-31T16:54:55.267Z,83.24
2022-10-31T16:57:32.062Z,83.69
2022-10-31T17:00:05.467Z,83.47
2022-10-31T17:02:37.845Z,84.42
2022-10-31T17:05:13.620Z,85.25
2022-10-31T17:07:46.466Z,84.46
2022-10-31T17:10:20.315Z,82.49
2022-10-31T17:12:53.534Z,82.16
2022-10-31T17:15:27.757Z,83.98
2022-10-31T17:18:00.258Z,85.28
2022-10-31T17:20:33.825Z,84.34
2022-10-31T17:23:06.113Z,82.93
2022-10-31T17:25:39.111Z,82.24
2022-10-31T17:28:15.003Z,81.33
2022-10-31T17:30:47.024Z,80.62
2022-10-31T17:33:19.855Z,80.48
2022-10-31T17:35:52.053Z,81.29
2022-10-31T17:38:24.703Z,79.94
2022-10-31T17:40:57.184Z,80.23
2022-10-31T17:43:29.783Z,81.18
2022-10-31T17:46:03.631Z,80.06
2022-10-31T17:48:37.172Z,78.69
2022-10-31T17:51:10.341Z,78.78
2022-10-31T17:53:42.591Z,78.52
2022-10-31T17:56:15.110Z,77.97
2022-10-31T17:58:47.490Z,77.56
2022-10-31T18:01:20.712Z,77.08
2022-10-31T18:03:53.249Z,77.52
2022-10-31T18:06:25.527Z,77.93
2022-10-31T18:08:58.569Z,77.88
2022-10-31T18:11:31.188Z,77.43
2022-10-31T18:14:03.449Z,77.75
2022-10-31T18:19:08.771Z,80.06
2022-10-31T18:21:41.432Z,81.67
2022-10-31T18:24:14.105Z,82.45
2022-10-31T18:26:46.643Z,82.32
2022-10-31T18:29:18.789Z,81.34
2022-10-31T18:31:52.980Z,80.48
2022-10-31T18:34:25.448Z,79.49
2022-10-31T18:36:57.900Z,78.79
2022-10-31T18:39:30.601Z,78.67
2022-10-31T18:42:03.389Z,78.57
2022-10-31T18:44:35.476Z,78.13
2022-10-31T18:47:09.640Z,77.83
2022-10-31T18:49:41.738Z,78.32
2022-10-31T18:52:13.691Z,77.68
2022-10-31T18:54:47.844Z,76.91
2022-10-31T18:57:20.153Z,76.12
2022-10-31T18:59:52.318Z,75.97
2022-10-31T19:02:24.609Z,75.98
2022-10-31T19:04:57.095Z,76.34
2022-10-31T19:07:29.394Z,77.17
2022-10-31T19:10:01.847Z,78.82
2022-10-31T19:12:35.413Z,80.76
2022-10-31T19:15:09.359Z,82.55
2022-10-31T19:17:41.423Z,83.43
2022-10-31T19:20:15.314Z,84.59
2022-10-31T19:22:48.063Z,85.38
2022-10-31T19:25:21.027Z,85.60
2022-10-31T19:27:53.614Z,86.31
2022-10-31T19:30:26.247Z,86.32
2022-10-31T19:32:58.938Z,86.44
2022-10-31T19:35:31.305Z,86.61
2022-10-31T19:38:04.082Z,86.46
2022-10-31T19:40:37.470Z,86.57
2022-10-31T19:43:10.117Z,86.74
2022-10-31T19:45:42.421Z,86.61
2022-10-31T19:48:14.598Z,86.12
2022-10-31T19:50:46.990Z,85.91
2022-10-31T19:53:19.388Z,85.68
2022-10-31T19:55:51.767Z,85.73
2022-10-31T19:58:26.220Z,85.82
2022-10-31T20:03:31.626Z,85.85
2022-10-31T20:06:07.649Z,85.99
2022-10-31T20:08:39.822Z,85.99
2022-10-31T20:11:12.579Z,86.20
2022-10-31T20:13:46.281Z,85.73
2022-10-31T20:16:20.106Z,86.06
2022-10-31T20:18:52.296Z,86.27
2022-10-31T20:21:26.801Z,86.13
2022-10-31T20:24:00.317Z,85.96
2022-10-31T20:26:34.968Z,85.86
2022-10-31T20:29:07.307Z,85.55
2022-10-31T20:31:40.089Z,85.48
2022-10-31T20:34:12.297Z,85.46
2022-10-31T20:36:45.087Z,85.27
2022-10-31T20:40:05.196Z,85.60
2022-10-31T20:52:19.298Z,85.00
2022-10-31T20:54:58.575Z,84.78
2022-10-31T20:57:31.170Z,84.41
2022-10-31T21:00:03.875Z,84.55
2022-10-31T21:02:36.548Z,84.75
2022-10-31T21:05:10.150Z,84.97
2022-10-31T21:07:43.617Z,84.78
2022-10-31T21:10:16.396Z,84.97
2022-10-31T21:12:48.713Z,84.88
2022-10-31T21:15:20.943Z,85.02
2022-10-31T21:18:18.979Z,84.78
2022-10-31T21:21:19.500Z,84.94
2022-10-31T21:50:57.753Z,84.12
2022-10-31T21:54:19.948Z,84.34
2022-10-31T21:57:16.851Z,84.47
2022-10-31T22:00:13.809Z,84.30
2022-10-31T22:02:46.099Z,84.54
2022-10-31T22:05:18.544Z,84.54
2022-10-31T22:07:52.891Z,84.83
2022-10-31T22:10:26.272Z,84.81
2022-10-31T22:12:58.946Z,84.86
2022-10-31T22:15:31.249Z,84.85
2022-10-31T22:18:04.050Z,84.82
2022-10-31T22:20:36.376Z,84.97
2022-10-31T22:23:09.723Z,84.79
2022-10-31T22:25:42.056Z,84.83
2022-10-31T22:28:14.294Z,85.00
2022-10-31T22:30:46.542Z,84.79
2022-10-31T22:33:18.736Z,85.12
2022-10-31T22:35:50.908Z,84.84
2022-10-31T22:38:23.699Z,85.29
2022-10-31T22:41:00.393Z,85.11
2022-10-31T22:43:33.119Z,85.41
2022-10-31T22:46:08.288Z,85.17
2022-10-31T22:48:43.258Z,85.37
2022-10-31T22:51:17.366Z,85.43
2022-10-31T22:53:51.238Z,85.38
2022-10-31T22:56:25.221Z,85.42
2022-10-31T22:58:57.795Z,85.35
2022-10-31T23:01:32.307Z,85.49
2022-10-31T23:04:04.685Z,85.49
2022-10-31T23:06:36.869Z,85.61
2022-10-31T23:09:09.757Z,85.56
2022-10-31T23:11:42.593Z,85.39
2022-10-31T23:14:18.897Z,85.34
2022-10-31T23:16:54.064Z,85.12
2022-10-31T23:19:30.344Z,85.40
2022-10-31T23:22:05.173Z,85.20
2022-10-31T23:24:36.805Z,85.45
2022-10-31T23:27:14.533Z,85.45
2022-10-31T23:29:49.952Z,85.36
2022-10-31T23:32:25.872Z,85.23
2022-10-31T23:35:00.443Z,85.36
2022-10-31T23:37:32.968Z,85.46
2022-10-31T23:40:08.251Z,85.32
2022-10-31T23:42:40.797Z,85.28
2022-10-31T23:45:19.201Z,85.36
2022-10-31T23:47:51.642Z,85.37
2022-10-31T23:50:24.213Z,85.44
2022-10-31T23:52:56.343Z,85.29
2022-10-31T23:55:28.616Z,85.18
2022-10-31T23:58:02.072Z,85.41
